Time;durP1;ratioP1;P1;durP2;ratioP2;P2;SDS_P1;SDS_P2;PMS_P1;PMS_P2;Temp;Humidity;BMP_temperature;BMP_pressure;BME280_temperature;BME280_humidity;BME280_pressure;Samples;Min_cycle;Max_cycle;Signal;HPM_P1;HPM_P2
2022/07/03 00:02:10;;;;;;;1.02;0.40;;;17.90;99.90;;;;;;4996008;28;36815;-79
2022/07/03 00:04:36;;;;;;;2.13;0.38;;;17.90;99.90;;;;;;4998482;28;38932;-80
2022/07/03 00:07:02;;;;;;;2.03;0.80;;;18.00;99.90;;;;;;4996592;28;38098;-80
2022/07/03 00:09:28;;;;;;;3.13;0.40;;;18.00;99.90;;;;;;5028094;28;38760;-80
2022/07/03 00:11:54;;;;;;;1.05;0.40;;;18.00;99.90;;;;;;5004522;28;38184;-80
2022/07/03 00:14:21;;;;;;;2.00;0.50;;;18.10;99.90;;;;;;5000635;28;39596;-78
2022/07/03 00:16:47;;;;;;;1.35;0.40;;;18.10;99.90;;;;;;5000985;28;38527;-79
2022/07/03 00:19:13;;;;;;;1.42;0.60;;;18.10;99.90;;;;;;5027821;28;37300;-79
2022/07/03 00:22:11;;;;;;;0.93;0.32;;;18.10;99.90;;;;;;4994027;28;37989;-79
2022/07/03 00:24:47;;;;;;;1.40;0.50;;;18.10;99.90;;;;;;5000047;28;46914;-80
2022/07/03 00:27:15;;;;;;;2.35;0.63;;;18.10;99.90;;;;;;5052675;28;39640;-79
2022/07/03 00:29:43;;;;;;;2.00;0.57;;;18.10;99.90;;;;;;5042323;28;38892;-80
2022/07/03 00:32:21;;;;;;;1.13;0.52;;;18.00;99.90;;;;;;5018034;28;37771;-80
2022/07/03 00:34:50;;;;;;;0.60;0.45;;;18.10;99.90;;;;;;4996542;28;37430;-80
2022/07/03 00:37:16;;;;;;;1.75;0.50;;;18.00;99.90;;;;;;4990731;28;38552;-79
2022/07/03 00:39:43;;;;;;;2.30;0.60;;;18.10;99.90;;;;;;5017886;28;38513;-79
2022/07/03 00:42:11;;;;;;;4.03;0.50;;;18.10;99.90;;;;;;5009506;28;37603;-79
2022/07/03 00:44:48;;;;;;;1.42;0.38;;;18.10;99.90;;;;;;5027215;28;38997;-80
2022/07/03 00:47:16;;;;;;;2.88;0.52;;;18.20;99.90;;;;;;5011326;28;39958;-80
2022/07/03 00:49:47;;;;;;;2.58;0.50;;;18.10;99.90;;;;;;5041532;28;40011;-80
2022/07/03 00:52:15;;;;;;;1.83;0.40;;;18.10;99.90;;;;;;5022246;28;37166;-80
2022/07/03 00:54:52;;;;;;;2.55;0.45;;;18.10;99.90;;;;;;5016568;28;39590;-79
2022/07/03 00:57:20;;;;;;;0.55;0.30;;;18.10;99.90;;;;;;5039705;28;38995;-79
2022/07/03 00:59:46;;;;;;;1.80;0.50;;;18.00;99.90;;;;;;5013523;28;38202;-79
2022/07/03 01:02:18;;;;;;;2.85;0.50;;;18.10;99.90;;;;;;5012650;28;37900;-79
2022/07/03 01:05:20;;;;;;;2.75;1.05;;;18.00;99.90;;;;;;4998396;28;40227;-79
2022/07/03 01:08:45;;;;;;;1.17;0.37;;;18.00;99.90;;;;;;5027958;28;46324;-79
2022/07/03 01:11:24;;;;;;;3.63;0.60;;;18.00;99.90;;;;;;4965509;28;48387;-80
2022/07/03 01:14:12;;;;;;;5.03;0.80;;;17.90;99.90;;;;;;4958693;28;38019;-80
2022/07/03 01:16:47;;;;;;;5.20;0.80;;;17.80;99.90;;;;;;4984077;28;47490;-79
2022/07/03 01:19:34;;;;;;;0.73;0.40;;;17.90;99.90;;;;;;5031397;28;39097;-80
2022/07/03 01:22:24;;;;;;;2.65;0.40;;;17.80;99.90;;;;;;5012571;28;38088;-80
2022/07/03 01:25:15;;;;;;;3.17;0.52;;;17.90;99.90;;;;;;5008531;28;48971;-79
2022/07/03 01:28:18;;;;;;;3.10;0.47;;;17.80;99.90;;;;;;5005933;28;48469;-80
2022/07/03 01:30:51;;;;;;;1.17;0.40;;;17.80;99.90;;;;;;5052775;28;46949;-79
2022/07/03 01:33:21;;;;;;;2.58;0.60;;;17.80;99.90;;;;;;5018774;28;37474;-79
2022/07/03 01:36:00;;;;;;;3.95;0.50;;;17.80;99.90;;;;;;4993464;28;37934;-79
2022/07/03 01:38:28;;;;;;;2.85;0.50;;;17.80;99.90;;;;;;4996161;28;47410;-80
2022/07/03 01:40:56;;;;;;;2.67;0.60;;;17.70;99.90;;;;;;5006795;28;39013;-79
2022/07/03 01:43:29;;;;;;;3.13;0.60;;;17.70;99.90;;;;;;5023192;28;38097;-79
2022/07/03 01:46:00;;;;;;;1.83;0.40;;;17.60;99.90;;;;;;5055911;28;38866;-79
2022/07/03 01:48:28;;;;;;;3.60;0.82;;;17.70;99.90;;;;;;4998180;28;47649;-81
2022/07/03 01:50:55;;;;;;;3.47;0.95;;;17.60;99.90;;;;;;5008322;28;37937;-81
2022/07/03 01:53:25;;;;;;;6.97;0.90;;;17.60;99.90;;;;;;5004437;28;38617;-79
2022/07/03 01:55:57;;;;;;;2.28;0.70;;;17.50;99.90;;;;;;5005094;28;37645;-81
2022/07/03 01:58:23;;;;;;;4.82;0.85;;;17.50;99.90;;;;;;5000482;28;39239;-79
2022/07/03 02:01:06;;;;;;;1.58;0.52;;;17.50;99.90;;;;;;4995531;28;39018;-80
2022/07/03 02:03:34;;;;;;;3.33;0.63;;;17.50;99.90;;;;;;5012556;28;46872;-81
2022/07/03 02:06:09;;;;;;;4.75;0.63;;;17.50;99.90;;;;;;5049904;28;38067;-80
2022/07/03 02:09:07;;;;;;;4.07;0.93;;;17.50;99.90;;;;;;5026043;28;47146;-79
2022/07/03 02:11:36;;;;;;;5.53;1.02;;;17.50;99.90;;;;;;5010740;28;47247;-79
2022/07/03 02:14:12;;;;;;;3.88;0.80;;;17.40;99.90;;;;;;5021055;28;37142;-80
2022/07/03 02:16:55;;;;;;;4.45;0.85;;;17.40;99.90;;;;;;5037608;28;36363;-79
2022/07/03 02:19:37;;;;;;;2.05;0.77;;;17.40;99.90;;;;;;5056085;28;38977;-80
2022/07/03 02:22:08;;;;;;;3.85;0.75;;;17.40;99.90;;;;;;5009179;28;38837;-80
2022/07/03 02:24:43;;;;;;;2.25;0.85;;;17.40;99.90;;;;;;4994972;28;37014;-80
2022/07/03 02:27:16;;;;;;;3.40;1.13;;;17.40;99.90;;;;;;5016060;28;36293;-80
2022/07/03 02:30:02;;;;;;;4.15;0.75;;;17.40;99.90;;;;;;5060453;28;39350;-80
2022/07/03 02:32:33;;;;;;;4.03;0.95;;;17.40;99.90;;;;;;5034265;28;47069;-80
2022/07/03 02:35:06;;;;;;;3.65;0.80;;;17.40;99.90;;;;;;5021142;28;38314;-80
2022/07/03 02:37:39;;;;;;;3.15;0.90;;;17.40;99.90;;;;;;5019026;28;48391;-80
2022/07/03 02:40:31;;;;;;;5.80;0.65;;;17.50;99.90;;;;;;5020139;28;38807;-80
2022/07/03 02:43:23;;;;;;;4.78;1.27;;;17.40;99.90;;;;;;5029511;28;37588;-79
2022/07/03 02:49:19;;;;;;;4.22;1.15;;;17.40;99.90;;;;;;4996677;28;48205;-79
2022/07/03 02:52:08;;;;;;;3.92;0.80;;;17.40;99.90;;;;;;5039668;28;38471;-79
2022/07/03 02:54:45;;;;;;;3.40;0.68;;;17.40;99.90;;;;;;5011738;28;47395;-79
2022/07/03 02:57:15;;;;;;;4.30;1.00;;;17.40;99.90;;;;;;5031603;28;37165;-78
2022/07/03 02:59:57;;;;;;;4.70;0.90;;;17.40;99.90;;;;;;5009092;28;36328;-81
2022/07/03 03:02:36;;;;;;;3.25;0.63;;;17.40;99.90;;;;;;5024824;28;38997;-81
2022/07/03 03:05:05;;;;;;;6.07;1.10;;;17.40;99.90;;;;;;5025749;28;38180;-80
2022/07/03 03:07:56;;;;;;;4.07;1.38;;;17.40;99.90;;;;;;5023781;28;38891;-81
2022/07/03 03:10:22;;;;;;;6.70;1.20;;;17.30;99.90;;;;;;5025796;28;36838;-81
2022/07/03 03:12:58;;;;;;;3.20;0.65;;;17.30;99.90;;;;;;5018174;28;37575;-81
2022/07/03 03:15:29;;;;;;;2.25;0.77;;;17.30;99.90;;;;;;5021727;28;38475;-80
2022/07/03 03:18:00;;;;;;;4.65;1.05;;;17.30;99.90;;;;;;5025607;28;37505;-81
2022/07/03 03:20:37;;;;;;;5.47;0.77;;;17.30;99.90;;;;;;5022384;28;36493;-81
2022/07/03 03:23:29;;;;;;;3.95;1.10;;;17.20;99.90;;;;;;5036415;28;39048;-81
2022/07/03 03:25:55;;;;;;;6.40;1.10;;;17.20;99.90;;;;;;5034079;28;38297;-81
2022/07/03 03:28:21;;;;;;;4.15;0.95;;;17.10;99.90;;;;;;5018709;28;39631;-81
2022/07/03 03:30:49;;;;;;;6.45;1.10;;;17.10;99.90;;;;;;5021680;28;37305;-81
2022/07/03 03:33:16;;;;;;;8.93;1.33;;;17.00;99.90;;;;;;5038847;28;39161;-81
2022/07/03 03:35:43;;;;;;;5.03;0.80;;;17.00;99.90;;;;;;5052688;28;38982;-81
2022/07/03 03:38:09;;;;;;;4.57;0.93;;;17.00;99.90;;;;;;5022779;28;38822;-81
2022/07/03 03:40:35;;;;;;;3.88;0.90;;;17.00;99.90;;;;;;5022593;28;36524;-81
2022/07/03 03:43:02;;;;;;;4.78;1.45;;;17.00;99.90;;;;;;5041108;28;37714;-81
2022/07/03 03:45:28;;;;;;;4.72;1.33;;;17.00;99.90;;;;;;5051748;28;47618;-80
2022/07/03 03:47:55;;;;;;;4.20;1.20;;;16.90;99.90;;;;;;5025111;28;39085;-80
2022/07/03 03:50:22;;;;;;;7.22;1.30;;;16.90;99.90;;;;;;5011390;28;37560;-80
2022/07/03 03:52:49;;;;;;;3.05;0.93;;;16.90;99.90;;;;;;5055026;28;40029;-80
2022/07/03 03:55:15;;;;;;;4.65;1.20;;;16.90;99.90;;;;;;5018319;28;40060;-81
2022/07/03 03:57:41;;;;;;;3.28;1.23;;;16.90;99.90;;;;;;5054314;28;40146;-80
2022/07/03 04:00:08;;;;;;;3.58;1.10;;;16.90;99.90;;;;;;5019283;28;38103;-80
2022/07/03 04:02:34;;;;;;;4.20;1.10;;;16.80;99.90;;;;;;5020093;28;40657;-80
2022/07/03 04:05:00;;;;;;;5.72;1.20;;;16.80;99.90;;;;;;5025874;28;37609;-80
2022/07/03 04:07:26;;;;;;;4.90;1.00;;;16.80;99.90;;;;;;5019820;28;47333;-81
2022/07/03 04:09:52;;;;;;;5.22;1.23;;;16.90;99.90;;;;;;5054295;28;37406;-80
2022/07/03 04:12:19;;;;;;;4.30;1.38;;;16.80;99.90;;;;;;5021852;28;40644;-81
2022/07/03 04:14:45;;;;;;;6.60;1.23;;;16.80;99.90;;;;;;5022030;28;40204;-81
2022/07/03 04:17:11;;;;;;;2.33;1.15;;;16.80;99.90;;;;;;5027513;28;38077;-80
2022/07/03 04:19:37;;;;;;;5.47;1.38;;;16.80;99.90;;;;;;5043776;28;38110;-80
2022/07/03 04:22:08;;;;;;;3.42;1.00;;;16.80;99.90;;;;;;5025563;28;38758;-79
2022/07/03 04:24:37;;;;;;;3.95;1.20;;;16.80;99.90;;;;;;5049749;28;39264;-82
2022/07/03 04:27:04;;;;;;;4.43;1.23;;;16.90;99.90;;;;;;5051706;28;38756;-81
2022/07/03 04:29:30;;;;;;;4.03;0.70;;;16.90;99.90;;;;;;5053344;28;38315;-81
2022/07/03 04:31:56;;;;;;;4.50;1.20;;;17.00;99.90;;;;;;5051089;28;37691;-81
2022/07/03 04:34:22;;;;;;;6.30;1.30;;;17.00;99.90;;;;;;5051374;28;38858;-81
2022/07/03 04:36:49;;;;;;;7.90;1.50;;;17.00;99.90;;;;;;5046687;28;38928;-81
2022/07/03 04:39:15;;;;;;;5.15;0.90;;;17.00;99.90;;;;;;5031328;28;38024;-81
2022/07/03 04:41:41;;;;;;;3.60;0.90;;;17.10;99.90;;;;;;5019117;28;38921;-80
2022/07/03 04:44:09;;;;;;;4.13;1.13;;;17.10;99.90;;;;;;5017758;28;20042;-81
2022/07/03 04:46:35;;;;;;;5.95;1.08;;;17.00;99.90;;;;;;5021331;28;39170;-81
2022/07/03 04:49:01;;;;;;;5.07;1.30;;;17.00;99.90;;;;;;5016691;28;36554;-81
2022/07/03 04:51:27;;;;;;;4.32;0.90;;;17.00;99.90;;;;;;5051213;28;40056;-81
2022/07/03 04:53:54;;;;;;;7.10;1.30;;;17.10;99.90;;;;;;5055151;28;37902;-81
2022/07/03 04:56:20;;;;;;;3.25;0.90;;;17.00;99.90;;;;;;5037097;28;39149;-81
2022/07/03 04:58:46;;;;;;;6.07;1.30;;;17.00;99.90;;;;;;5039410;28;37129;-81
2022/07/03 05:01:13;;;;;;;4.05;1.42;;;17.00;99.90;;;;;;5038917;28;37589;-81
2022/07/03 05:03:39;;;;;;;7.65;1.30;;;17.10;99.90;;;;;;5077565;28;38511;-81
2022/07/03 05:06:05;;;;;;;5.40;1.40;;;17.10;99.90;;;;;;5036301;28;37470;-84
2022/07/03 05:08:32;;;;;;;8.45;1.60;;;17.20;99.90;;;;;;5048250;28;36995;-83
2022/07/03 05:10:59;;;;;;;7.20;2.08;;;17.20;99.90;;;;;;5036987;28;41512;-80
2022/07/03 05:13:26;;;;;;;5.13;1.23;;;17.40;99.90;;;;;;5020774;28;39320;-80
2022/07/03 05:15:52;;;;;;;5.90;1.55;;;17.50;99.90;;;;;;5023002;28;39097;-80
2022/07/03 05:18:18;;;;;;;4.10;1.20;;;17.50;99.90;;;;;;5023196;28;37164;-80
2022/07/03 05:20:44;;;;;;;5.18;1.15;;;17.70;99.90;;;;;;5024500;28;38769;-80
2022/07/03 05:23:10;;;;;;;10.25;1.65;;;17.60;99.90;;;;;;5026722;28;38576;-80
2022/07/03 05:25:36;;;;;;;4.18;1.33;;;17.60;99.90;;;;;;5028035;28;39199;-80
2022/07/03 05:28:03;;;;;;;6.90;1.58;;;17.80;99.90;;;;;;5061107;28;38920;-79
2022/07/03 05:30:29;;;;;;;5.72;1.30;;;17.90;99.90;;;;;;5016507;28;39782;-80
2022/07/03 05:32:55;;;;;;;8.20;1.23;;;17.90;99.90;;;;;;5016070;28;38708;-80
2022/07/03 05:35:21;;;;;;;6.55;1.50;;;18.10;99.90;;;;;;5009828;28;37970;-79
2022/07/03 05:37:48;;;;;;;3.22;0.85;;;18.30;99.90;;;;;;4998955;28;38084;-79
2022/07/03 05:40:14;;;;;;;8.30;1.42;;;18.40;99.90;;;;;;5020643;28;40013;-79
2022/07/03 05:42:40;;;;;;;5.78;1.35;;;18.60;99.90;;;;;;5003123;28;39114;-80
2022/07/03 05:45:07;;;;;;;3.95;1.33;;;18.80;99.90;;;;;;5000218;28;38085;-79
2022/07/03 05:47:34;;;;;;;6.68;1.50;;;19.20;99.90;;;;;;5029102;28;38136;-79
2022/07/03 05:50:00;;;;;;;8.25;1.33;;;19.40;99.90;;;;;;5006864;28;37871;-80
2022/07/03 05:52:26;;;;;;;7.07;1.15;;;19.60;99.90;;;;;;5028345;28;38437;-80
2022/07/03 05:54:52;;;;;;;2.88;0.90;;;19.80;99.90;;;;;;4995051;28;39355;-80
2022/07/03 05:57:20;;;;;;;9.20;1.35;;;19.90;99.90;;;;;;5026077;28;37474;-80
2022/07/03 05:59:46;;;;;;;7.90;1.55;;;19.80;99.90;;;;;;5008446;28;39626;-80
2022/07/03 06:02:12;;;;;;;4.35;0.80;;;19.80;99.90;;;;;;5002602;28;39737;-80
2022/07/03 06:04:42;;;;;;;3.88;0.98;;;19.80;99.90;;;;;;5028034;28;38348;-79
2022/07/03 06:07:08;;;;;;;3.55;0.90;;;20.00;99.90;;;;;;5007060;28;38601;-80
2022/07/03 06:09:34;;;;;;;5.20;1.20;;;20.20;99.90;;;;;;5032121;28;39515;-80
2022/07/03 06:12:00;;;;;;;4.88;1.02;;;20.20;99.90;;;;;;4999979;28;39463;-80
2022/07/03 06:14:26;;;;;;;3.80;0.82;;;20.40;99.90;;;;;;4994734;28;40582;-81
2022/07/03 06:16:53;;;;;;;4.32;1.13;;;20.70;99.90;;;;;;5000015;28;36764;-80
2022/07/03 06:19:19;;;;;;;3.38;1.00;;;20.90;99.90;;;;;;5001899;28;38967;-80
2022/07/03 06:21:45;;;;;;;3.20;0.80;;;20.80;99.90;;;;;;5033436;28;39095;-80
2022/07/03 06:24:11;;;;;;;4.25;1.20;;;20.60;99.90;;;;;;5017565;28;38216;-80
2022/07/03 06:26:37;;;;;;;4.68;1.00;;;20.40;99.90;;;;;;5050967;28;38861;-80
2022/07/03 06:29:03;;;;;;;4.38;1.33;;;20.30;99.90;;;;;;5023771;28;37811;-81
2022/07/03 06:31:31;;;;;;;5.75;1.05;;;20.20;99.90;;;;;;5016686;28;38714;-80
2022/07/03 06:33:57;;;;;;;3.92;0.90;;;20.30;99.90;;;;;;5018850;28;38712;-80
2022/07/03 06:36:23;;;;;;;7.32;1.35;;;20.30;99.90;;;;;;5017741;28;36778;-80
2022/07/03 06:38:49;;;;;;;2.17;0.85;;;20.10;99.90;;;;;;5019795;28;39490;-81
2022/07/03 06:41:16;;;;;;;4.90;1.10;;;19.60;99.90;;;;;;5020200;28;39362;-81
2022/07/03 06:43:42;;;;;;;6.13;1.15;;;19.70;99.90;;;;;;5024098;28;38224;-81
2022/07/03 06:46:08;;;;;;;3.88;1.10;;;19.70;99.90;;;;;;5028216;28;38338;-81
2022/07/03 06:48:34;;;;;;;5.38;1.08;;;19.80;99.90;;;;;;5021990;28;38600;-82
2022/07/03 06:51:00;;;;;;;6.45;1.25;;;20.00;99.90;;;;;;5020432;28;37529;-82
2022/07/03 06:53:27;;;;;;;4.70;1.17;;;20.10;99.90;;;;;;4998212;28;47530;-81
2022/07/03 06:55:53;;;;;;;3.35;0.90;;;20.30;99.90;;;;;;4994846;28;39028;-82
2022/07/03 06:58:19;;;;;;;2.80;0.82;;;20.20;99.90;;;;;;5026864;28;38085;-81
2022/07/03 07:00:45;;;;;;;7.38;1.48;;;20.20;99.90;;;;;;4994425;28;40236;-81
2022/07/03 07:03:11;;;;;;;4.28;1.58;;;19.90;99.90;;;;;;5000232;28;37727;-80
2022/07/03 07:05:40;;;;;;;3.38;1.02;;;19.40;99.90;;;;;;4996254;28;37776;-80
2022/07/03 07:08:06;;;;;;;3.20;0.90;;;19.50;99.90;;;;;;4999303;28;39721;-80
2022/07/03 07:10:32;;;;;;;4.35;1.20;;;19.60;99.90;;;;;;5034503;28;39313;-79
2022/07/03 07:12:58;;;;;;;4.32;1.25;;;19.60;99.90;;;;;;5000846;28;38950;-80
2022/07/03 07:15:24;;;;;;;3.72;1.13;;;19.60;99.90;;;;;;4999446;28;36958;-81
2022/07/03 07:17:51;;;;;;;4.45;1.00;;;19.80;99.90;;;;;;4994551;28;37704;-81
2022/07/03 07:20:17;;;;;;;2.40;1.27;;;20.00;99.90;;;;;;4994944;28;39082;-80
2022/07/03 07:22:43;;;;;;;5.13;1.55;;;20.00;99.90;;;;;;5009799;28;39670;-80
2022/07/03 07:25:09;;;;;;;5.10;1.90;;;20.00;99.90;;;;;;5024758;28;37027;-80
2022/07/03 07:27:38;;;;;;;7.45;1.27;;;20.40;99.90;;;;;;5006030;28;39079;-80
2022/07/03 07:30:04;;;;;;;4.35;1.17;;;20.30;99.90;;;;;;5014056;28;38896;-81
2022/07/03 07:32:31;;;;;;;4.97;1.85;;;20.50;99.90;;;;;;5021434;28;38510;-81
2022/07/03 07:34:57;;;;;;;5.07;1.23;;;20.60;99.90;;;;;;5011892;28;37503;-80
2022/07/03 07:37:23;;;;;;;6.70;1.25;;;20.60;99.90;;;;;;4995135;28;38695;-81
2022/07/03 07:39:49;;;;;;;5.18;0.90;;;20.50;99.90;;;;;;4996417;28;39403;-81
2022/07/03 07:42:16;;;;;;;6.00;1.52;;;20.50;99.90;;;;;;4998883;28;39038;-80
2022/07/03 07:44:42;;;;;;;5.28;1.33;;;20.60;99.90;;;;;;5039526;28;37782;-80
2022/07/03 07:47:08;;;;;;;2.90;1.05;;;20.50;99.90;;;;;;5019407;28;38964;-80
2022/07/03 07:49:34;;;;;;;5.53;1.33;;;20.50;99.90;;;;;;5007147;28;39208;-80
2022/07/03 07:52:00;;;;;;;4.95;1.02;;;20.60;99.90;;;;;;5030909;28;38498;-80
2022/07/03 07:54:26;;;;;;;8.90;1.42;;;20.90;99.90;;;;;;5018136;28;38505;-79
2022/07/03 07:56:52;;;;;;;5.68;1.02;;;21.00;99.90;;;;;;4996121;28;38122;-82
2022/07/03 07:59:18;;;;;;;3.28;1.00;;;20.80;99.90;;;;;;4994388;28;39962;-79
2022/07/03 08:07:13;;;;;;;2.72;0.80;;;20.60;99.90;;;;;;5010145;28;40341;-80
2022/07/03 08:09:40;;;;;;;3.13;0.95;;;21.00;99.90;;;;;;5011005;28;37337;-80
2022/07/03 08:12:06;;;;;;;5.00;1.33;;;21.20;99.90;;;;;;5019875;28;38274;-80
2022/07/03 08:14:32;;;;;;;6.30;1.17;;;21.00;99.90;;;;;;5008282;28;37532;-80
2022/07/03 08:16:58;;;;;;;4.13;1.20;;;20.60;99.90;;;;;;5022608;28;38786;-80
2022/07/03 08:19:24;;;;;;;3.53;1.52;;;20.30;99.90;;;;;;5016932;28;39774;-81
2022/07/03 08:21:50;;;;;;;5.03;1.38;;;20.30;99.90;;;;;;5016937;28;37707;-81
2022/07/03 08:24:16;;;;;;;3.88;1.15;;;20.40;99.90;;;;;;5017443;28;36829;-81
2022/07/03 08:26:42;;;;;;;2.55;1.10;;;20.60;99.90;;;;;;5024932;28;40234;-80
2022/07/03 08:29:09;;;;;;;3.88;1.42;;;20.70;99.90;;;;;;5013386;28;39079;-81
2022/07/03 08:31:35;;;;;;;4.28;1.40;;;21.10;99.90;;;;;;5041290;28;37680;-81
2022/07/03 08:34:01;;;;;;;3.50;1.10;;;21.80;99.90;;;;;;5012555;28;38086;-81
2022/07/03 08:36:27;;;;;;;6.18;1.42;;;21.80;99.90;;;;;;5014538;28;38655;-82
2022/07/03 08:38:57;;;;;;;7.03;1.90;;;21.60;99.90;;;;;;5010886;28;36797;-82
2022/07/03 08:41:24;;;;;;;3.95;1.30;;;21.30;99.90;;;;;;5020317;28;39803;-81
2022/07/03 08:43:51;;;;;;;3.85;1.10;;;21.10;99.90;;;;;;5050800;28;37618;-80
2022/07/03 08:46:22;;;;;;;5.28;1.55;;;21.20;99.90;;;;;;5015037;28;37260;-81
2022/07/03 08:48:50;;;;;;;4.50;1.23;;;20.90;99.90;;;;;;5045517;28;37521;-81
2022/07/03 08:51:19;;;;;;;5.70;1.30;;;20.70;99.90;;;;;;5015372;28;37935;-80
2022/07/03 08:53:47;;;;;;;5.93;1.40;;;20.50;99.90;;;;;;5027432;28;37950;-81
2022/07/03 08:56:13;;;;;;;4.32;1.15;;;20.20;99.90;;;;;;5024815;28;38559;-81
2022/07/03 08:58:40;;;;;;;3.60;1.05;;;20.10;99.90;;;;;;5025067;28;38885;-80
2022/07/03 09:01:06;;;;;;;2.75;1.00;;;19.70;99.90;;;;;;5052342;28;38746;-80
2022/07/03 09:03:33;;;;;;;2.10;0.75;;;19.50;99.90;;;;;;5016030;28;36989;-80
2022/07/03 09:06:00;;;;;;;2.60;0.82;;;19.30;99.90;;;;;;5019590;28;38615;-80
2022/07/03 09:08:28;;;;;;;4.25;1.10;;;19.20;99.90;;;;;;5014548;28;38437;-80
2022/07/03 09:10:54;;;;;;;3.05;0.93;;;18.90;99.90;;;;;;5056980;28;37061;-80
2022/07/03 09:13:20;;;;;;;4.78;0.93;;;19.00;99.90;;;;;;5020004;28;37760;-80
2022/07/03 09:15:47;;;;;;;4.72;1.30;;;19.50;99.90;;;;;;5021547;28;37928;-79
2022/07/03 09:18:13;;;;;;;3.40;1.33;;;19.90;99.90;;;;;;5011082;28;39081;-83
2022/07/03 09:20:41;;;;;;;4.70;1.60;;;20.00;99.90;;;;;;5001345;28;38698;-82
2022/07/03 09:23:13;;;;;;;4.80;1.05;;;20.10;99.90;;;;;;5014156;28;38116;-81
2022/07/03 09:25:56;;;;;;;3.00;1.00;;;20.40;99.90;;;;;;5011982;28;38453;-81
2022/07/03 09:28:40;;;;;;;4.28;1.10;;;20.80;99.90;;;;;;5007181;28;39758;-81
2022/07/03 09:31:07;;;;;;;2.45;0.90;;;21.40;99.90;;;;;;5004795;28;37138;-81
2022/07/03 09:33:33;;;;;;;3.03;1.10;;;21.80;99.90;;;;;;5012286;28;37163;-81
2022/07/03 09:35:59;;;;;;;5.82;1.42;;;22.20;99.90;;;;;;5020358;28;38618;-81
2022/07/03 09:38:25;;;;;;;4.50;0.90;;;22.50;99.90;;;;;;4989046;28;38532;-80
2022/07/03 09:40:54;;;;;;;5.43;1.15;;;22.10;99.90;;;;;;4992986;28;37982;-82
2022/07/03 09:43:23;;;;;;;4.22;1.20;;;21.50;99.90;;;;;;5028093;28;37032;-81
2022/07/03 09:45:55;;;;;;;5.05;0.90;;;21.10;99.90;;;;;;5000823;28;38898;-81
2022/07/03 09:48:21;;;;;;;;;;;20.70;99.90;;;;;;4985678;28;39329;-80
2022/07/03 09:50:47;;;;;;;1.95;0.77;;;20.80;99.90;;;;;;5009212;28;35416;-81
2022/07/03 09:53:13;;;;;;;2.05;0.77;;;21.00;99.90;;;;;;4990180;28;38508;-81
2022/07/03 09:55:40;;;;;;;3.60;1.05;;;20.90;99.90;;;;;;5000109;28;38491;-81
2022/07/03 09:58:07;;;;;;;4.80;1.38;;;21.00;99.90;;;;;;4986005;28;37950;-82
2022/07/03 10:00:36;;;;;;;6.20;1.10;;;20.80;99.90;;;;;;4995850;28;37729;-81
2022/07/03 10:03:08;;;;;;;1.75;0.75;;;20.70;99.90;;;;;;5030308;28;39099;-81
2022/07/03 10:05:41;;;;;;;3.78;1.10;;;20.40;99.90;;;;;;5052178;28;47351;-82
2022/07/03 10:08:41;;;;;;;2.13;0.80;;;20.40;99.90;;;;;;5012860;28;39261;-82
2022/07/03 10:11:08;;;;;;;3.22;0.82;;;21.20;99.90;;;;;;5035149;28;39487;-82
2022/07/03 10:13:38;;;;;;;3.65;0.90;;;21.90;99.90;;;;;;5040279;28;38726;-82
2022/07/03 10:16:06;;;;;;;3.03;1.27;;;22.10;99.90;;;;;;5011262;28;39249;-82
2022/07/03 10:18:39;;;;;;;4.30;1.00;;;21.90;99.90;;;;;;5022953;28;39122;-81
2022/07/03 10:21:07;;;;;;;3.70;0.80;;;21.60;99.90;;;;;;5052190;28;38779;-81
2022/07/03 10:23:36;;;;;;;3.97;0.82;;;21.20;99.90;;;;;;5019772;28;38788;-80
2022/07/03 10:26:02;;;;;;;2.85;0.80;;;20.70;99.90;;;;;;5018449;28;40704;-80
2022/07/03 10:28:33;;;;;;;4.30;0.90;;;20.20;99.90;;;;;;5013715;28;39469;-79
2022/07/03 10:31:00;;;;;;;1.27;0.90;;;20.10;99.90;;;;;;5028792;28;39122;-79
2022/07/03 10:33:28;;;;;;;4.97;0.93;;;20.20;99.90;;;;;;5019585;28;39115;-79
2022/07/03 10:35:56;;;;;;;2.60;1.00;;;20.20;99.90;;;;;;5014194;28;39590;-80
2022/07/03 10:38:39;;;;;;;1.45;0.77;;;20.20;99.90;;;;;;5024283;28;38313;-80
2022/07/03 10:47:03;;;;;;;2.00;0.90;;;20.00;99.90;;;;;;5015988;28;39276;-79
2022/07/03 10:49:29;;;;;;;3.28;1.10;;;19.90;99.90;;;;;;5013385;28;38405;-78
2022/07/03 10:51:57;;;;;;;2.22;0.80;;;19.80;99.90;;;;;;5044735;28;38009;-79
2022/07/03 10:54:51;;;;;;;3.00;0.93;;;19.60;99.90;;;;;;5024523;28;37934;-79
2022/07/03 10:57:22;;;;;;;2.55;0.73;;;19.70;99.90;;;;;;5019664;28;38647;-79
2022/07/03 10:59:48;;;;;;;3.58;0.85;;;20.20;99.90;;;;;;5039333;28;38928;-79
2022/07/03 11:02:28;;;;;;;2.78;1.00;;;20.50;99.90;;;;;;5029602;28;39910;-80
2022/07/03 11:04:58;;;;;;;2.97;0.93;;;20.50;99.90;;;;;;5045138;28;38041;-80
2022/07/03 11:07:28;;;;;;;1.45;0.60;;;20.40;99.90;;;;;;5027268;28;38199;-80
2022/07/03 11:10:13;;;;;;;1.60;0.75;;;20.20;99.90;;;;;;5026694;28;37507;-80
2022/07/03 11:13:11;;;;;;;1.27;0.60;;;20.10;99.90;;;;;;5036291;28;47289;-80
2022/07/03 11:15:43;;;;;;;3.95;0.70;;;20.00;99.90;;;;;;5046876;28;47320;-80
2022/07/03 11:18:10;;;;;;;1.88;0.80;;;20.00;99.90;;;;;;5032074;28;38150;-80
2022/07/03 11:20:45;;;;;;;1.95;0.70;;;20.10;99.90;;;;;;5016876;28;38678;-80
2022/07/03 11:23:23;;;;;;;3.50;0.68;;;20.40;99.90;;;;;;5014700;28;37816;-80
2022/07/03 11:25:55;;;;;;;1.55;0.60;;;21.30;99.90;;;;;;5030217;28;36951;-79
2022/07/03 11:28:31;;;;;;;2.22;0.73;;;21.90;99.90;;;;;;5021229;28;37876;-79
2022/07/03 11:31:18;;;;;;;3.22;0.90;;;22.50;99.90;;;;;;5020756;28;37411;-79
2022/07/03 11:33:44;;;;;;;1.23;1.10;;;22.80;99.90;;;;;;5010238;28;48960;-81
2022/07/03 11:36:17;;;;;;;3.22;0.85;;;23.10;99.90;;;;;;5022850;28;38125;-80
2022/07/03 11:38:44;;;;;;;3.08;0.88;;;22.50;99.90;;;;;;5041604;28;38028;-80
2022/07/03 11:41:16;;;;;;;3.47;0.90;;;22.10;99.90;;;;;;5009485;28;39298;-80
2022/07/03 11:43:49;;;;;;;3.20;0.60;;;22.60;99.90;;;;;;5008152;28;38139;-80
2022/07/03 11:46:33;;;;;;;0.90;0.65;;;22.30;99.90;;;;;;4993252;28;38065;-79
2022/07/03 11:49:12;;;;;;;3.17;0.90;;;22.00;99.90;;;;;;4994219;28;40056;-80
2022/07/03 11:51:40;;;;;;;4.13;1.13;;;21.70;99.90;;;;;;5017796;28;47069;-80
2022/07/03 11:54:07;;;;;;;2.67;0.70;;;21.30;99.90;;;;;;5040771;28;38518;-80
2022/07/03 11:56:34;;;;;;;3.08;0.95;;;21.00;99.90;;;;;;5001462;28;38461;-82
2022/07/03 11:59:03;;;;;;;3.53;0.90;;;21.00;99.90;;;;;;5025852;28;38255;-82
2022/07/03 12:01:37;;;;;;;2.30;1.10;;;20.90;99.90;;;;;;4990485;28;48147;-81
2022/07/03 12:04:09;;;;;;;3.00;0.90;;;20.60;99.90;;;;;;5025007;28;39342;-82
2022/07/03 12:06:36;;;;;;;3.95;0.80;;;20.50;99.90;;;;;;5008373;28;38261;-81
2022/07/03 12:09:12;;;;;;;4.57;1.00;;;20.40;99.90;;;;;;5000315;28;39878;-79
2022/07/03 12:11:38;;;;;;;2.13;0.65;;;20.20;99.90;;;;;;4998736;28;38032;-81
2022/07/03 12:14:04;;;;;;;3.13;0.80;;;20.00;99.90;;;;;;5033541;28;39525;-81
2022/07/03 12:16:34;;;;;;;1.45;0.70;;;19.90;99.90;;;;;;5027601;28;36571;-82
2022/07/03 12:19:06;;;;;;;3.13;0.80;;;19.80;99.90;;;;;;4995459;28;37669;-83
2022/07/03 12:21:37;;;;;;;3.08;0.95;;;19.70;99.90;;;;;;5005885;28;49004;-81
2022/07/03 12:24:12;;;;;;;4.68;1.20;;;19.70;99.90;;;;;;4991857;28;37283;-83
2022/07/03 12:26:39;;;;;;;4.22;0.88;;;19.80;99.90;;;;;;5001774;28;38274;-83
2022/07/03 12:29:10;;;;;;;2.83;0.68;;;20.00;99.90;;;;;;5003483;28;37994;-82
2022/07/03 12:31:45;;;;;;;2.08;0.73;;;20.10;99.90;;;;;;5016851;28;38832;-80
2022/07/03 12:34:12;;;;;;;3.50;0.93;;;19.90;99.90;;;;;;5024620;28;37157;-80
2022/07/03 12:36:39;;;;;;;2.50;0.80;;;19.80;99.90;;;;;;4996547;28;36568;-81
2022/07/03 12:39:06;;;;;;;4.63;0.90;;;19.60;99.90;;;;;;5001790;28;38266;-79
2022/07/03 12:41:32;;;;;;;1.75;0.77;;;19.40;99.90;;;;;;5033374;28;39326;-79
2022/07/03 12:43:59;;;;;;;2.95;0.90;;;19.10;99.90;;;;;;4996865;28;37827;-79
2022/07/03 12:46:35;;;;;;;2.55;0.60;;;19.70;99.90;;;;;;4991554;28;35787;-80
2022/07/03 12:49:14;;;;;;;3.25;1.23;;;20.40;99.90;;;;;;5026959;28;39748;-80
2022/07/03 12:51:43;;;;;;;2.70;1.02;;;21.00;99.90;;;;;;4991659;28;48517;-81
2022/07/03 12:54:11;;;;;;;2.75;0.73;;;21.40;99.90;;;;;;5000131;28;39538;-80
2022/07/03 12:56:38;;;;;;;4.38;0.80;;;21.70;99.90;;;;;;4996807;28;37381;-83
2022/07/03 12:59:17;;;;;;;2.03;0.52;;;21.70;99.90;;;;;;5002742;28;38919;-81
2022/07/03 13:01:44;;;;;;;1.73;0.70;;;21.10;99.90;;;;;;5007963;28;39157;-81
2022/07/03 13:04:14;;;;;;;2.05;0.50;;;21.20;99.90;;;;;;4999973;28;39832;-81
2022/07/03 13:06:42;;;;;;;1.55;0.57;;;21.10;99.90;;;;;;4992149;28;38160;-81
2022/07/03 13:09:09;;;;;;;1.83;0.40;;;21.10;99.90;;;;;;5006234;28;38990;-82
2022/07/03 13:11:40;;;;;;;4.55;0.70;;;21.70;99.90;;;;;;5017547;28;39364;-82
2022/07/03 13:14:16;;;;;;;3.28;0.60;;;21.60;99.90;;;;;;4999316;28;37273;-81
2022/07/03 13:16:47;;;;;;;5.03;1.00;;;21.80;99.90;;;;;;5044421;28;36053;-81
2022/07/03 13:19:16;;;;;;;1.58;0.60;;;22.20;99.90;;;;;;5011013;28;39941;-82